createdAt,value
2022-10-18T00:02:13.764Z,22.80
2022-10-18T00:04:40.274Z,19.98
2022-10-18T00:07:06.705Z,18.70
2022-10-18T00:09:33.323Z,20.90
2022-10-18T00:12:00.722Z,18.35
2022-10-18T00:14:27.249Z,19.13
2022-10-18T00:16:53.734Z,10.95
2022-10-18T00:19:20.201Z,19.38
2022-10-18T00:21:46.652Z,14.45
2022-10-18T00:24:13.090Z,15.68
2022-10-18T00:26:39.628Z,18.83
2022-10-18T00:29:07.148Z,18.90
2022-10-18T00:31:37.990Z,19.05
2022-10-18T00:34:09.915Z,17.15
2022-10-18T00:36:36.447Z,18.88
2022-10-18T00:39:05.242Z,16.35
2022-10-18T00:41:34.005Z,18.48
2022-10-18T00:44:26.521Z,12.05
2022-10-18T00:46:59.358Z,20.05
2022-10-18T00:49:32.084Z,16.63
2022-10-18T00:52:26.766Z,16.25
2022-10-18T00:54:55.782Z,19.60
2022-10-18T00:57:23.508Z,19.05
2022-10-18T00:59:50.126Z,19.85
2022-10-18T01:02:18.329Z,17.55
2022-10-18T01:04:46.263Z,18.02
2022-10-18T01:07:32.827Z,13.73
2022-10-18T01:10:23.021Z,20.35
2022-10-18T01:16:10.234Z,19.00
2022-10-18T01:18:56.959Z,17.73
2022-10-18T01:21:57.347Z,20.08
2022-10-18T01:24:57.762Z,19.95
2022-10-18T01:27:40.829Z,19.30
2022-10-18T01:30:46.185Z,21.17
2022-10-18T01:33:15.422Z,20.10
2022-10-18T01:35:48.873Z,20.42
2022-10-18T01:38:18.889Z,16.20
2022-10-18T01:40:49.194Z,13.70
2022-10-18T01:43:17.068Z,17.73
2022-10-18T01:45:43.685Z,19.17
2022-10-18T01:48:12.695Z,20.05
2022-10-18T01:50:39.348Z,17.77
2022-10-18T01:53:05.960Z,16.40
2022-10-18T01:55:48.382Z,18.27
2022-10-18T01:58:28.509Z,17.45
2022-10-18T02:01:05.643Z,19.88
2022-10-18T02:03:34.890Z,13.10
2022-10-18T02:06:10.745Z,18.30
2022-10-18T02:08:49.862Z,17.40
2022-10-18T02:11:17.919Z,18.52
2022-10-18T02:13:52.394Z,17.98
2022-10-18T02:16:28.174Z,17.33
2022-10-18T02:21:57.192Z,17.67
2022-10-18T02:24:30.125Z,14.80
2022-10-18T02:26:56.768Z,18.08
2022-10-18T02:29:23.728Z,14.90
2022-10-18T02:31:59.637Z,11.93
2022-10-18T02:34:32.082Z,12.25
2022-10-18T02:37:01.044Z,18.17
2022-10-18T02:39:32.626Z,12.95
2022-10-18T02:41:59.868Z,16.95
2022-10-18T02:44:26.771Z,17.77
2022-10-18T02:46:54.370Z,17.33
2022-10-18T02:49:20.886Z,12.65
2022-10-18T02:51:47.346Z,16.67
2022-10-18T02:54:13.813Z,17.80
2022-10-18T02:56:40.313Z,16.77
2022-10-18T02:59:07.475Z,16.27
2022-10-18T03:01:36.049Z,11.85
2022-10-18T03:04:03.516Z,16.38
2022-10-18T03:06:30.510Z,15.60
2022-10-18T03:08:56.970Z,15.15
2022-10-18T03:11:23.685Z,16.05
2022-10-18T03:13:53.001Z,15.75
2022-10-18T03:16:19.694Z,13.98
2022-10-18T03:18:46.218Z,12.43
2022-10-18T03:21:12.762Z,14.98
2022-10-18T03:23:40.014Z,15.95
2022-10-18T03:26:06.612Z,14.40
2022-10-18T03:28:33.112Z,15.00
2022-10-18T03:31:04.298Z,14.88
2022-10-18T03:33:32.172Z,13.70
2022-10-18T03:35:58.641Z,14.15
2022-10-18T03:38:25.143Z,13.98
2022-10-18T03:40:51.708Z,10.60
2022-10-18T03:43:18.220Z,10.07
2022-10-18T03:45:44.826Z,14.18
2022-10-18T03:48:11.344Z,14.55
2022-10-18T03:50:37.823Z,18.17
2022-10-18T03:53:04.374Z,16.33
2022-10-18T03:55:30.910Z,16.88
2022-10-18T03:57:57.493Z,16.05
2022-10-18T04:00:24.017Z,16.65
2022-10-18T04:02:53.318Z,14.18
2022-10-18T04:05:24.001Z,16.10
2022-10-18T04:07:52.588Z,16.58
2022-10-18T04:10:19.946Z,16.45
2022-10-18T04:12:48.027Z,16.60
2022-10-18T04:15:14.903Z,16.83
2022-10-18T04:17:41.442Z,16.80
2022-10-18T04:20:08.565Z,18.02
2022-10-18T04:22:35.105Z,16.17
2022-10-18T04:25:01.577Z,18.00
2022-10-18T04:27:28.164Z,19.45
2022-10-18T04:29:54.660Z,18.27
2022-10-18T04:32:21.177Z,18.50
2022-10-18T04:34:47.682Z,20.95
2022-10-18T04:37:14.214Z,17.85
2022-10-18T04:39:40.699Z,18.73
2022-10-18T04:42:07.162Z,17.50
2022-10-18T04:44:34.388Z,20.13
2022-10-18T04:47:00.853Z,19.58
2022-10-18T04:49:27.294Z,19.63
2022-10-18T04:51:53.770Z,21.35
2022-10-18T04:54:21.856Z,21.20
2022-10-18T04:56:50.364Z,17.83
2022-10-18T04:59:16.834Z,21.58
2022-10-18T05:01:43.407Z,20.23
2022-10-18T05:04:09.973Z,20.45
2022-10-18T05:06:36.429Z,21.17
2022-10-18T05:09:02.922Z,22.17
2022-10-18T05:11:29.412Z,23.27
2022-10-18T05:13:56.130Z,19.52
2022-10-18T05:16:22.608Z,21.65
2022-10-18T05:18:49.152Z,23.77
2022-10-18T05:21:16.073Z,23.17
2022-10-18T05:23:42.653Z,22.63
2022-10-18T05:26:09.288Z,19.95
2022-10-18T05:28:40.419Z,22.42
2022-10-18T05:31:09.682Z,23.85
2022-10-18T05:33:36.162Z,21.45
2022-10-18T05:36:02.717Z,21.67
2022-10-18T05:38:30.930Z,17.38
2022-10-18T05:40:58.263Z,14.40
2022-10-18T05:43:28.545Z,22.92
2022-10-18T05:45:55.397Z,20.13
2022-10-18T05:48:21.929Z,24.35
2022-10-18T05:50:48.404Z,17.55
2022-10-18T05:53:35.149Z,11.50
2022-10-18T05:56:01.834Z,23.05
2022-10-18T05:58:28.415Z,25.48
2022-10-18T06:00:54.938Z,25.15
2022-10-18T06:03:21.384Z,25.40
2022-10-18T06:05:47.849Z,24.23
2022-10-18T06:08:14.305Z,22.77
2022-10-18T06:10:40.873Z,22.80
2022-10-18T06:13:07.338Z,22.38
2022-10-18T06:15:33.849Z,24.98
2022-10-18T06:18:00.329Z,24.98
2022-10-18T06:20:26.790Z,25.63
2022-10-18T06:22:53.604Z,25.27
2022-10-18T06:25:20.125Z,23.02
2022-10-18T06:27:46.581Z,24.42
2022-10-18T06:30:13.126Z,27.70
2022-10-18T06:32:39.612Z,24.20
2022-10-18T06:35:06.851Z,24.42
2022-10-18T06:37:35.507Z,24.35
2022-10-18T06:40:02.314Z,24.77
2022-10-18T06:42:28.851Z,26.17
2022-10-18T06:44:55.307Z,26.13
2022-10-18T06:47:21.792Z,24.83
2022-10-18T06:49:48.239Z,24.88
2022-10-18T06:52:17.715Z,24.25
2022-10-18T06:54:45.393Z,25.65
2022-10-18T06:57:12.016Z,25.13
2022-10-18T06:59:38.554Z,16.13
2022-10-18T07:02:05.444Z,23.02
2022-10-18T07:04:32.092Z,23.25
2022-10-18T07:06:58.697Z,23.50
2022-10-18T07:09:25.230Z,23.35
2022-10-18T07:11:52.902Z,26.45
2022-10-18T07:14:19.404Z,26.48
2022-10-18T07:16:45.892Z,27.15
2022-10-18T07:19:12.453Z,22.60
2022-10-18T07:21:38.898Z,26.48
2022-10-18T07:24:05.585Z,23.63
2022-10-18T07:26:34.649Z,26.42
2022-10-18T07:29:11.772Z,21.00
2022-10-18T07:31:38.676Z,23.75
2022-10-18T07:34:06.253Z,17.83
2022-10-18T07:36:33.213Z,27.60
2022-10-18T07:38:59.913Z,15.25
2022-10-18T07:41:26.377Z,24.42
2022-10-18T07:43:53.515Z,25.30
2022-10-18T07:46:21.672Z,25.75
2022-10-18T07:48:48.849Z,26.60
2022-10-18T07:51:15.746Z,24.00
2022-10-18T07:53:42.306Z,26.52
2022-10-18T07:56:15.661Z,26.30
2022-10-18T07:58:43.776Z,25.15
2022-10-18T08:01:10.671Z,17.20
2022-10-18T08:03:38.086Z,26.40
2022-10-18T08:06:08.044Z,27.92
2022-10-18T08:08:35.646Z,26.50
2022-10-18T08:11:04.714Z,16.77
2022-10-18T08:13:31.739Z,26.45
2022-10-18T08:16:07.104Z,26.67
2022-10-18T08:18:33.637Z,23.98
2022-10-18T08:21:01.078Z,26.02
2022-10-18T08:23:27.660Z,26.17
2022-10-18T08:25:54.133Z,23.08
2022-10-18T08:28:20.717Z,25.52
2022-10-18T08:30:47.169Z,25.92
2022-10-18T08:33:13.785Z,23.45
2022-10-18T08:35:40.254Z,24.50
2022-10-18T08:38:16.414Z,21.52
2022-10-18T08:40:45.040Z,25.63
2022-10-18T08:43:26.406Z,25.08
2022-10-18T08:45:54.456Z,26.20
2022-10-18T08:48:29.795Z,24.00
2022-10-18T08:50:58.332Z,26.42
2022-10-18T08:53:33.086Z,22.75
2022-10-18T08:56:24.058Z,24.80
2022-10-18T09:01:23.582Z,23.63
2022-10-18T09:04:23.980Z,24.13
2022-10-18T09:07:05.627Z,23.75
2022-10-18T09:09:59.982Z,24.40
2022-10-18T09:12:42.759Z,19.88
2022-10-18T09:15:40.366Z,18.70
2022-10-18T09:18:20.246Z,21.38
2022-10-18T09:20:52.681Z,23.88
2022-10-18T09:23:22.964Z,23.90
2022-10-18T09:26:17.658Z,22.13
2022-10-18T09:29:07.119Z,24.75
2022-10-18T09:31:49.557Z,24.00
2022-10-18T09:34:40.190Z,22.77
2022-10-18T09:37:13.497Z,22.67
2022-10-18T09:39:40.890Z,22.90
2022-10-18T09:42:21.535Z,23.27
2022-10-18T09:44:52.966Z,20.83
2022-10-18T09:50:15.430Z,21.27
2022-10-18T09:52:54.548Z,19.55
2022-10-18T09:55:31.052Z,21.17
2022-10-18T09:58:01.804Z,18.77
2022-10-18T10:00:31.910Z,21.77
2022-10-18T10:03:01.601Z,19.90
2022-10-18T10:05:28.041Z,17.25
2022-10-18T10:08:02.113Z,20.38
2022-10-18T10:10:30.337Z,22.52
2022-10-18T10:13:22.703Z,22.27
2022-10-18T10:15:55.857Z,18.85
2022-10-18T10:18:25.478Z,21.10
2022-10-18T10:20:58.156Z,20.23
2022-10-18T10:23:36.878Z,22.00
2022-10-18T10:26:27.455Z,25.45
2022-10-18T10:28:54.277Z,22.73
2022-10-18T10:31:31.514Z,22.23
2022-10-18T10:34:02.236Z,22.98
2022-10-18T10:36:30.318Z,22.27
2022-10-18T10:39:11.181Z,18.50
2022-10-18T10:41:40.234Z,17.45
2022-10-18T10:44:16.973Z,14.60
2022-10-18T10:46:44.078Z,12.02
2022-10-18T10:49:39.671Z,8.98
2022-10-18T10:52:15.376Z,6.78
2022-10-18T10:54:52.120Z,5.13
2022-10-18T10:57:28.904Z,5.63
2022-10-18T10:59:59.653Z,6.20
2022-10-18T11:02:31.728Z,4.90
2022-10-18T11:05:22.567Z,4.82
2022-10-18T11:07:52.206Z,4.95
2022-10-18T11:10:22.808Z,5.07
2022-10-18T11:13:02.494Z,3.78
2022-10-18T11:15:47.164Z,4.75
2022-10-18T11:18:14.643Z,4.43
2022-10-18T11:20:45.341Z,4.18
2022-10-18T11:23:14.397Z,3.97
2022-10-18T11:26:00.877Z,3.67
2022-10-18T11:28:36.436Z,2.42
2022-10-18T11:31:18.897Z,2.80
2022-10-18T11:34:12.115Z,2.60
2022-10-18T11:36:56.333Z,2.45
2022-10-18T11:39:43.494Z,2.22
2022-10-18T11:42:25.662Z,1.98
2022-10-18T11:45:14.965Z,2.33
2022-10-18T11:47:56.994Z,2.10
2022-10-18T11:50:29.326Z,2.38
2022-10-18T11:53:09.845Z,2.13
2022-10-18T11:55:56.768Z,2.13
2022-10-18T11:58:25.936Z,2.05
2022-10-18T12:00:58.561Z,1.90
2022-10-18T12:03:40.260Z,1.88
2022-10-18T12:06:15.054Z,1.67
2022-10-18T12:08:49.872Z,1.67
2022-10-18T12:11:22.318Z,1.90
2022-10-18T12:13:53.697Z,1.70
2022-10-18T12:16:45.585Z,1.48
2022-10-18T12:19:23.354Z,1.90
2022-10-18T12:21:53.832Z,2.10
2022-10-18T12:24:25.227Z,2.45
2022-10-18T12:26:57.050Z,2.63
2022-10-18T12:29:45.318Z,2.55
2022-10-18T12:32:29.802Z,3.17
2022-10-18T12:35:16.201Z,2.85
2022-10-18T12:38:07.616Z,3.20
2022-10-18T12:40:50.775Z,3.70
2022-10-18T12:43:22.645Z,3.05
2022-10-18T12:45:55.296Z,3.20
2022-10-18T12:48:31.660Z,3.20
2022-10-18T12:51:20.846Z,3.50
2022-10-18T12:54:09.159Z,3.90
2022-10-18T12:56:42.112Z,3.10
2022-10-18T12:59:14.934Z,2.50
2022-10-18T13:02:04.430Z,2.78
2022-10-18T13:04:32.454Z,2.03
2022-10-18T13:07:05.003Z,2.33
2022-10-18T13:09:36.640Z,2.55
2022-10-18T13:12:09.168Z,2.17
2022-10-18T13:14:35.621Z,1.73
2022-10-18T13:17:20.960Z,1.75
2022-10-18T13:20:24.028Z,2.15
2022-10-18T13:23:20.014Z,1.98
2022-10-18T13:26:00.602Z,1.80
2022-10-18T13:28:53.351Z,1.80
2022-10-18T13:31:27.019Z,1.90
2022-10-18T13:33:53.549Z,1.50
2022-10-18T13:36:24.873Z,2.33
2022-10-18T13:38:55.775Z,1.60
2022-10-18T13:44:02.577Z,1.92
2022-10-18T13:46:36.392Z,1.27
2022-10-18T13:49:19.686Z,2.53
2022-10-18T13:52:08.750Z,1.42
2022-10-18T13:54:53.586Z,1.48
2022-10-18T13:57:42.021Z,2.00
2022-10-18T14:00:30.021Z,1.90
2022-10-18T14:03:43.973Z,1.52
2022-10-18T14:06:10.560Z,1.50
2022-10-18T14:08:52.555Z,1.73
2022-10-18T14:11:41.993Z,3.08
2022-10-18T14:14:16.895Z,2.00
2022-10-18T14:17:14.188Z,2.13
2022-10-18T14:19:55.168Z,2.15
2022-10-18T14:22:46.055Z,2.28
2022-10-18T14:25:32.321Z,2.60
2022-10-18T14:28:15.431Z,2.95
2022-10-18T14:30:57.877Z,3.13
2022-10-18T14:33:32.598Z,2.88
2022-10-18T14:36:15.334Z,2.80
2022-10-18T14:38:53.053Z,2.95
2022-10-18T14:41:28.965Z,3.30
2022-10-18T14:44:14.772Z,3.30
2022-10-18T14:46:53.202Z,3.15
2022-10-18T14:49:21.050Z,2.90
2022-10-18T14:51:51.646Z,3.00
2022-10-18T14:54:46.688Z,2.80
2022-10-18T14:57:33.867Z,3.22
2022-10-18T15:00:04.892Z,2.45
2022-10-18T15:02:35.936Z,2.38
2022-10-18T15:05:07.396Z,2.80
2022-10-18T15:07:37.025Z,2.63
2022-10-18T15:10:05.295Z,3.25
2022-10-18T15:12:40.954Z,2.83
2022-10-18T15:15:20.827Z,3.00
2022-10-18T15:17:49.368Z,2.50
2022-10-18T15:20:22.764Z,2.83
2022-10-18T15:22:49.472Z,2.50
2022-10-18T15:25:32.058Z,2.30
2022-10-18T15:28:00.481Z,2.33
2022-10-18T15:30:37.366Z,2.53
2022-10-18T15:33:09.677Z,2.72
2022-10-18T15:35:38.346Z,2.05
2022-10-18T15:38:24.208Z,1.60
2022-10-18T15:40:51.007Z,1.92
2022-10-18T15:43:37.854Z,1.52
2022-10-18T15:46:06.588Z,1.20
2022-10-18T15:48:38.739Z,1.20
2022-10-18T15:51:23.716Z,1.90
2022-10-18T15:53:52.968Z,1.75
2022-10-18T15:56:30.322Z,1.98
2022-10-18T15:58:58.710Z,1.88
2022-10-18T16:01:36.042Z,1.80
2022-10-18T16:04:18.211Z,1.85
2022-10-18T16:06:44.854Z,2.50
2022-10-18T16:09:18.683Z,1.85
2022-10-18T16:11:45.572Z,2.28
2022-10-18T16:14:12.029Z,2.00
2022-10-18T16:16:39.899Z,2.10
2022-10-18T16:19:07.226Z,1.85
2022-10-18T16:21:38.535Z,3.25
2022-10-18T16:24:05.964Z,2.83
2022-10-18T16:26:32.703Z,2.10
2022-10-18T16:28:59.841Z,2.05
2022-10-18T16:31:29.310Z,2.28
2022-10-18T16:33:56.112Z,3.47
2022-10-18T16:36:25.298Z,3.65
2022-10-18T16:38:51.868Z,3.42
2022-10-18T16:41:18.534Z,4.28
2022-10-18T16:43:46.970Z,3.65
2022-10-18T16:46:17.664Z,3.30
2022-10-18T16:48:45.002Z,3.72
2022-10-18T16:51:11.944Z,3.47
2022-10-18T16:53:38.682Z,3.58
2022-10-18T16:56:11.737Z,2.83
2022-10-18T16:58:38.227Z,3.33
2022-10-18T17:01:08.019Z,1.90
2022-10-18T17:03:35.599Z,2.95
2022-10-18T17:06:02.043Z,3.35
2022-10-18T17:08:28.641Z,2.10
2022-10-18T17:10:57.559Z,3.80
2022-10-18T17:13:25.603Z,3.15
2022-10-18T17:15:53.404Z,4.70
2022-10-18T17:18:23.283Z,1.90
2022-10-18T17:20:50.293Z,1.65
2022-10-18T17:23:16.942Z,2.78
2022-10-18T17:25:57.456Z,1.92
2022-10-18T17:28:31.243Z,3.05
2022-10-18T17:30:57.770Z,2.00
2022-10-18T17:33:24.279Z,2.30
2022-10-18T17:35:50.758Z,3.13
2022-10-18T17:38:17.218Z,2.42
2022-10-18T17:40:43.804Z,2.88
2022-10-18T17:43:10.426Z,2.33
2022-10-18T17:45:36.964Z,2.78
2022-10-18T17:48:03.595Z,2.40
2022-10-18T17:50:30.077Z,2.25
2022-10-18T17:52:57.312Z,3.47
2022-10-18T17:55:23.780Z,3.58
2022-10-18T17:57:51.464Z,6.60
2022-10-18T18:00:17.987Z,3.83
2022-10-18T18:02:44.759Z,3.08
2022-10-18T18:05:12.572Z,2.92
2022-10-18T18:07:39.053Z,2.90
2022-10-18T18:10:06.006Z,1.92
2022-10-18T18:12:32.739Z,2.55
2022-10-18T18:14:59.518Z,2.45
2022-10-18T18:17:34.048Z,2.80
2022-10-18T18:20:01.081Z,1.67
2022-10-18T18:22:27.553Z,2.92
2022-10-18T18:24:54.027Z,3.92
2022-10-18T18:27:20.473Z,2.35
2022-10-18T18:29:48.293Z,3.28
2022-10-18T18:32:15.087Z,4.53
2022-10-18T18:34:41.684Z,3.10
2022-10-18T18:37:09.338Z,3.75
2022-10-18T18:39:36.325Z,3.67
2022-10-18T18:42:03.919Z,3.70
2022-10-18T18:44:32.078Z,3.30
2022-10-18T18:46:58.868Z,3.55
2022-10-18T18:49:27.386Z,3.13
2022-10-18T18:51:53.918Z,3.25
2022-10-18T18:54:21.980Z,4.05
2022-10-18T18:56:48.531Z,3.40
2022-10-18T18:59:15.729Z,2.83
2022-10-18T19:01:42.778Z,3.60
2022-10-18T19:04:10.939Z,3.83
2022-10-18T19:06:42.828Z,2.95
2022-10-18T19:09:18.538Z,3.70
2022-10-18T19:11:46.946Z,3.55
2022-10-18T19:14:14.318Z,3.45
2022-10-18T19:16:46.376Z,5.60
2022-10-18T19:19:15.432Z,4.63
2022-10-18T19:21:53.853Z,4.20
2022-10-18T19:24:21.731Z,3.63
2022-10-18T19:26:54.378Z,3.80
2022-10-18T19:29:22.321Z,6.00
2022-10-18T19:31:50.213Z,4.45
2022-10-18T19:34:17.773Z,4.72
2022-10-18T19:36:46.411Z,4.10
2022-10-18T19:39:23.494Z,3.83
2022-10-18T19:41:52.593Z,4.97
2022-10-18T19:44:20.129Z,5.05
2022-10-18T19:46:47.188Z,4.50
2022-10-18T19:49:14.014Z,6.32
2022-10-18T19:51:40.802Z,4.90
2022-10-18T19:54:07.454Z,5.25
2022-10-18T19:56:34.056Z,6.07
2022-10-18T19:59:00.714Z,5.55
2022-10-18T20:01:28.440Z,4.75
2022-10-18T20:03:55.368Z,6.63
2022-10-18T20:06:22.328Z,5.05
2022-10-18T20:08:48.890Z,5.40
2022-10-18T20:11:23.277Z,5.90
2022-10-18T20:13:50.418Z,3.75
2022-10-18T20:16:18.900Z,5.93
2022-10-18T20:18:45.343Z,5.82
2022-10-18T20:21:14.958Z,6.18
2022-10-18T20:23:44.000Z,5.68
2022-10-18T20:26:17.982Z,7.10
2022-10-18T20:28:48.187Z,6.95
2022-10-18T20:31:17.828Z,5.40
2022-10-18T20:33:45.861Z,3.75
2022-10-18T20:36:17.441Z,4.85
2022-10-18T20:38:46.248Z,3.55
2022-10-18T20:41:16.322Z,6.28
2022-10-18T20:43:43.208Z,2.92
2022-10-18T20:46:10.308Z,6.20
2022-10-18T20:48:38.481Z,5.80
2022-10-18T20:51:07.009Z,2.30
2022-10-18T20:53:35.243Z,2.20
2022-10-18T20:56:07.236Z,3.20
2022-10-18T20:58:37.632Z,5.45
2022-10-18T21:01:22.548Z,1.70
2022-10-18T21:03:50.661Z,2.78
2022-10-18T21:06:23.133Z,3.45
2022-10-18T21:09:11.923Z,2.88
2022-10-18T21:11:40.925Z,7.07
2022-10-18T21:14:12.025Z,2.22
2022-10-18T21:16:38.473Z,6.85
2022-10-18T21:19:06.962Z,16.08
2022-10-18T21:21:33.687Z,5.82
2022-10-18T21:24:02.603Z,8.95
2022-10-18T21:26:32.099Z,8.65
2022-10-18T21:28:59.688Z,8.25
2022-10-18T21:31:31.494Z,5.35
2022-10-18T21:34:00.095Z,9.05
2022-10-18T21:36:31.026Z,11.25
2022-10-18T21:38:57.932Z,20.67
2022-10-18T21:41:24.839Z,13.40
2022-10-18T21:43:53.721Z,13.35
2022-10-18T21:46:22.041Z,3.63
2022-10-18T21:48:51.652Z,7.13
2022-10-18T21:51:20.046Z,7.38
2022-10-18T21:53:48.424Z,4.13
2022-10-18T21:56:23.715Z,5.72
2022-10-18T21:58:50.647Z,5.50
2022-10-18T22:01:23.935Z,5.68
2022-10-18T22:03:51.938Z,6.22
2022-10-18T22:06:19.452Z,3.15
2022-10-18T22:08:52.378Z,3.53
2022-10-18T22:11:21.956Z,5.03
2022-10-18T22:13:48.531Z,3.50
2022-10-18T22:16:16.773Z,2.60
2022-10-18T22:18:44.793Z,2.63
2022-10-18T22:21:12.732Z,2.53
2022-10-18T22:23:44.908Z,4.82
2022-10-18T22:26:23.761Z,3.67
2022-10-18T22:29:01.827Z,8.35
2022-10-18T22:31:32.131Z,9.27
2022-10-18T22:34:01.083Z,10.15
2022-10-18T22:36:27.808Z,9.05
2022-10-18T22:38:54.324Z,6.85
2022-10-18T22:41:20.809Z,3.22
2022-10-18T22:43:47.776Z,7.30
2022-10-18T22:46:15.506Z,8.93
2022-10-18T22:48:43.045Z,8.93
2022-10-18T22:51:10.548Z,6.18
2022-10-18T22:53:38.152Z,9.60
2022-10-18T22:56:05.070Z,9.60
2022-10-18T22:58:32.223Z,12.18
2022-10-18T23:01:08.336Z,8.20
2022-10-18T23:03:35.516Z,13.15
2022-10-18T23:06:02.758Z,9.27
2022-10-18T23:08:29.679Z,6.85
2022-10-18T23:10:58.523Z,9.68
2022-10-18T23:13:26.886Z,9.43
2022-10-18T23:15:53.603Z,11.68
2022-10-18T23:18:20.241Z,8.10
2022-10-18T23:20:46.693Z,10.77
2022-10-18T23:23:13.569Z,7.78
2022-10-18T23:25:40.300Z,6.38
2022-10-18T23:28:07.012Z,11.15
2022-10-18T23:30:33.890Z,4.13
2022-10-18T23:33:00.628Z,9.38
2022-10-18T23:35:29.288Z,6.75
2022-10-18T23:37:55.783Z,9.20
2022-10-18T23:40:22.232Z,4.55
2022-10-18T23:42:48.693Z,8.68
2022-10-18T23:45:15.197Z,9.80
2022-10-18T23:47:41.656Z,8.60
2022-10-18T23:50:08.558Z,6.97
2022-10-18T23:52:35.034Z,7.50
2022-10-18T23:55:01.502Z,6.40
2022-10-18T23:57:28.730Z,8.55
2022-10-18T23:59:55.220Z,8.00
